createdAt,value
2022-12-26T00:03:28.416Z,9.15
2022-12-26T00:18:28.974Z,9.10
2022-12-26T00:33:30.153Z,9.05
2022-12-26T00:48:31.708Z,9.04
2022-12-26T01:03:32.284Z,9.04
2022-12-26T01:18:33.327Z,9.21
2022-12-26T01:33:35.934Z,9.32
2022-12-26T01:48:37.044Z,9.38
2022-12-26T02:03:37.682Z,9.43
2022-12-26T02:18:38.263Z,9.39
2022-12-26T02:33:38.924Z,9.53
2022-12-26T02:48:39.741Z,9.61
2022-12-26T03:03:40.228Z,9.66
2022-12-26T03:18:58.572Z,9.58
2022-12-26T03:33:48.952Z,9.74
2022-12-26T03:48:51.073Z,9.81
2022-12-26T04:03:52.386Z,9.90
2022-12-26T04:18:52.788Z,9.87
2022-12-26T04:33:52.945Z,10.05
2022-12-26T04:48:53.007Z,10.22
2022-12-26T05:03:53.737Z,10.15
2022-12-26T05:18:54.240Z,10.20
2022-12-26T05:33:54.863Z,10.18
2022-12-26T05:48:54.960Z,10.02
2022-12-26T06:03:56.267Z,9.93
2022-12-26T06:18:57.205Z,9.86
2022-12-26T06:33:57.915Z,9.81
2022-12-26T06:48:58.474Z,9.89
2022-12-26T07:03:59.560Z,9.90
2022-12-26T07:19:00.723Z,9.96
2022-12-26T07:34:01.292Z,9.93
2022-12-26T07:49:01.398Z,9.83
2022-12-26T08:04:02.231Z,9.89
2022-12-26T08:19:02.643Z,9.75
2022-12-26T08:34:03.276Z,9.87
2022-12-26T08:49:03.884Z,9.76
2022-12-26T09:04:04.543Z,9.86
2022-12-26T09:19:05.141Z,9.99
2022-12-26T09:34:05.784Z,10.04
2022-12-26T09:49:06.339Z,10.14
2022-12-26T10:04:06.486Z,10.30
2022-12-26T10:19:07.075Z,10.33
2022-12-26T10:34:07.714Z,10.30
2022-12-26T10:49:08.272Z,10.11
2022-12-26T11:04:08.972Z,10.02
2022-12-26T11:19:09.570Z,9.97
2022-12-26T11:34:10.150Z,9.99
2022-12-26T11:49:10.761Z,10.17
2022-12-26T12:04:12.397Z,10.17
2022-12-26T12:19:12.992Z,9.97
2022-12-26T12:34:13.704Z,10.01
2022-12-26T12:49:14.277Z,10.07
2022-12-26T13:04:14.456Z,10.09
2022-12-26T13:19:15.344Z,10.07
2022-12-26T13:34:15.989Z,10.18
2022-12-26T13:49:16.628Z,10.17
2022-12-26T14:04:17.347Z,10.23
2022-12-26T14:19:19.387Z,10.33
2022-12-26T14:34:19.763Z,10.17
2022-12-26T14:49:20.351Z,10.01
2022-12-26T15:04:20.955Z,9.96
2022-12-26T15:19:21.121Z,10.09
2022-12-26T15:34:22.192Z,9.87
2022-12-26T15:49:22.803Z,9.78
2022-12-26T16:04:23.102Z,9.76
2022-12-26T16:19:24.534Z,9.58
2022-12-26T16:34:25.024Z,9.66
2022-12-26T16:49:25.648Z,9.35
2022-12-26T17:04:26.507Z,9.08
2022-12-26T17:19:27.183Z,8.68
2022-12-26T17:34:29.044Z,8.62
2022-12-26T17:49:31.048Z,8.58
2022-12-26T18:04:31.572Z,8.41
2022-12-26T18:19:33.522Z,8.20
2022-12-26T18:34:35.318Z,8.05
2022-12-26T18:49:38.226Z,7.45
2022-12-26T19:04:40.168Z,7.16
2022-12-26T19:19:40.798Z,6.77
2022-12-26T19:34:41.439Z,6.46
2022-12-26T19:49:42.065Z,6.36
2022-12-26T20:04:43.172Z,6.33
2022-12-26T20:19:45.350Z,6.17
2022-12-26T20:34:45.164Z,5.86
2022-12-26T20:49:45.816Z,5.64
2022-12-26T21:04:47.311Z,5.36
2022-12-26T21:19:48.830Z,5.38
2022-12-26T21:34:49.426Z,5.38
2022-12-26T21:49:50.061Z,5.40
2022-12-26T22:04:51.971Z,5.38
2022-12-26T22:19:52.555Z,5.35
2022-12-26T22:34:53.262Z,5.28
2022-12-26T22:49:53.793Z,5.20
2022-12-26T23:04:53.912Z,5.12
2022-12-26T23:19:54.997Z,5.20
2022-12-26T23:34:55.661Z,5.17
2022-12-26T23:49:56.747Z,5.03
